sensor_id;sensor_type;location;lat;lon;timestamp;temperature;humidity
33508;DHT22;25568;37.410;-122.096;2022-10-17T00:01:23;21.40;71.20
33508;DHT22;25568;37.410;-122.096;2022-10-17T00:04:09;21.40;71.20
33508;DHT22;25568;37.410;-122.096;2022-10-17T00:06:38;21.50;71.20
33508;DHT22;25568;37.410;-122.096;2022-10-17T00:09:08;21.50;71.00
33508;DHT22;25568;37.410;-122.096;2022-10-17T00:11:37;21.50;71.00
33508;DHT22;25568;37.410;-122.096;2022-10-17T00:14:06;21.50;71.00
33508;DHT22;25568;37.410;-122.096;2022-10-17T00:16:36;21.50;70.90
33508;DHT22;25568;37.410;-122.096;2022-10-17T00:19:05;21.50;70.80
33508;DHT22;25568;37.410;-122.096;2022-10-17T00:21:34;21.50;70.70
33508;DHT22;25568;37.410;-122.096;2022-10-17T00:24:03;21.60;70.80
33508;DHT22;25568;37.410;-122.096;2022-10-17T00:26:34;21.50;70.90
33508;DHT22;25568;37.410;-122.096;2022-10-17T00:29:03;21.50;70.90
33508;DHT22;25568;37.410;-122.096;2022-10-17T00:31:32;21.50;70.90
33508;DHT22;25568;37.410;-122.096;2022-10-17T00:34:01;21.50;71.00
33508;DHT22;25568;37.410;-122.096;2022-10-17T00:36:30;21.60;71.10
33508;DHT22;25568;37.410;-122.096;2022-10-17T00:39:00;21.50;71.40
33508;DHT22;25568;37.410;-122.096;2022-10-17T00:41:30;21.50;72.10
33508;DHT22;25568;37.410;-122.096;2022-10-17T00:44:02;21.50;74.80
33508;DHT22;25568;37.410;-122.096;2022-10-17T00:46:33;21.60;78.10
33508;DHT22;25568;37.410;-122.096;2022-10-17T00:49:05;21.60;78.00
33508;DHT22;25568;37.410;-122.096;2022-10-17T00:51:38;21.60;78.60
33508;DHT22;25568;37.410;-122.096;2022-10-17T00:54:09;21.70;76.70
33508;DHT22;25568;37.410;-122.096;2022-10-17T00:56:39;21.70;75.10
33508;DHT22;25568;37.410;-122.096;2022-10-17T00:59:10;21.70;73.80
33508;DHT22;25568;37.410;-122.096;2022-10-17T01:01:40;21.70;72.70
33508;DHT22;25568;37.410;-122.096;2022-10-17T01:04:10;21.70;72.50
33508;DHT22;25568;37.410;-122.096;2022-10-17T01:06:39;21.60;72.50
33508;DHT22;25568;37.410;-122.096;2022-10-17T01:09:08;21.60;72.50
33508;DHT22;25568;37.410;-122.096;2022-10-17T01:11:42;21.60;72.70
33508;DHT22;25568;37.410;-122.096;2022-10-17T01:14:21;21.70;72.70
33508;DHT22;25568;37.410;-122.096;2022-10-17T01:16:57;21.60;72.80
33508;DHT22;25568;37.410;-122.096;2022-10-17T01:19:45;21.60;72.80
33508;DHT22;25568;37.410;-122.096;2022-10-17T01:22:24;21.70;73.00
33508;DHT22;25568;37.410;-122.096;2022-10-17T01:25:11;21.60;73.10
33508;DHT22;25568;37.410;-122.096;2022-10-17T01:28:00;21.60;73.10
33508;DHT22;25568;37.410;-122.096;2022-10-17T01:30:56;21.60;73.10
33508;DHT22;25568;37.410;-122.096;2022-10-17T01:33:37;21.60;73.10
33508;DHT22;25568;37.410;-122.096;2022-10-17T01:36:10;21.70;73.30
33508;DHT22;25568;37.410;-122.096;2022-10-17T01:38:46;21.60;73.30
33508;DHT22;25568;37.410;-122.096;2022-10-17T01:41:22;21.60;73.30
33508;DHT22;25568;37.410;-122.096;2022-10-17T01:43:57;21.60;73.50
33508;DHT22;25568;37.410;-122.096;2022-10-17T01:46:31;21.60;73.60
33508;DHT22;25568;37.410;-122.096;2022-10-17T01:49:02;21.70;74.00
33508;DHT22;25568;37.410;-122.096;2022-10-17T01:51:35;21.70;74.10
33508;DHT22;25568;37.410;-122.096;2022-10-17T01:54:10;21.70;74.30
33508;DHT22;25568;37.410;-122.096;2022-10-17T01:56:40;21.70;74.60
33508;DHT22;25568;37.410;-122.096;2022-10-17T01:59:12;21.70;74.70
33508;DHT22;25568;37.410;-122.096;2022-10-17T02:01:45;21.70;75.10
33508;DHT22;25568;37.410;-122.096;2022-10-17T02:04:14;21.70;75.30
33508;DHT22;25568;37.410;-122.096;2022-10-17T02:06:43;21.70;75.40
33508;DHT22;25568;37.410;-122.096;2022-10-17T02:09:20;21.70;75.40
33508;DHT22;25568;37.410;-122.096;2022-10-17T02:12:02;21.70;75.40
33508;DHT22;25568;37.410;-122.096;2022-10-17T02:14:42;21.70;75.60
33508;DHT22;25568;37.410;-122.096;2022-10-17T02:17:26;21.70;75.70
33508;DHT22;25568;37.410;-122.096;2022-10-17T02:20:07;21.70;75.70
33508;DHT22;25568;37.410;-122.096;2022-10-17T02:22:42;21.70;75.80
33508;DHT22;25568;37.410;-122.096;2022-10-17T02:25:17;21.70;75.70
33508;DHT22;25568;37.410;-122.096;2022-10-17T02:27:51;21.70;75.80
33508;DHT22;25568;37.410;-122.096;2022-10-17T02:30:28;21.70;75.80
33508;DHT22;25568;37.410;-122.096;2022-10-17T02:33:02;21.70;75.80
33508;DHT22;25568;37.410;-122.096;2022-10-17T02:35:37;21.70;75.80
33508;DHT22;25568;37.410;-122.096;2022-10-17T02:38:08;21.70;75.70
33508;DHT22;25568;37.410;-122.096;2022-10-17T02:40:40;21.70;75.80
33508;DHT22;25568;37.410;-122.096;2022-10-17T02:43:10;21.70;75.80
33508;DHT22;25568;37.410;-122.096;2022-10-17T02:45:40;21.60;75.70
33508;DHT22;25568;37.410;-122.096;2022-10-17T02:48:17;21.60;75.40
33508;DHT22;25568;37.410;-122.096;2022-10-17T02:50:56;21.60;75.30
33508;DHT22;25568;37.410;-122.096;2022-10-17T02:53:33;21.70;74.90
33508;DHT22;25568;37.410;-122.096;2022-10-17T02:56:11;21.60;75.00
33508;DHT22;25568;37.410;-122.096;2022-10-17T02:58:43;21.60;74.90
33508;DHT22;25568;37.410;-122.096;2022-10-17T03:01:14;21.60;74.80
33508;DHT22;25568;37.410;-122.096;2022-10-17T03:03:45;21.60;74.70
33508;DHT22;25568;37.410;-122.096;2022-10-17T03:06:14;21.60;75.50
33508;DHT22;25568;37.410;-122.096;2022-10-17T03:08:43;21.60;74.50
33508;DHT22;25568;37.410;-122.096;2022-10-17T03:11:12;21.60;74.50
33508;DHT22;25568;37.410;-122.096;2022-10-17T03:13:40;21.60;74.40
33508;DHT22;25568;37.410;-122.096;2022-10-17T03:16:09;21.60;74.20
33508;DHT22;25568;37.410;-122.096;2022-10-17T03:18:38;21.60;74.10
33508;DHT22;25568;37.410;-122.096;2022-10-17T03:21:08;21.60;73.80
33508;DHT22;25568;37.410;-122.096;2022-10-17T03:23:37;21.60;73.70
33508;DHT22;25568;37.410;-122.096;2022-10-17T03:26:06;21.60;73.60
33508;DHT22;25568;37.410;-122.096;2022-10-17T03:28:35;21.60;73.60
33508;DHT22;25568;37.410;-122.096;2022-10-17T03:31:07;21.50;73.50
33508;DHT22;25568;37.410;-122.096;2022-10-17T03:33:36;21.50;73.30
33508;DHT22;25568;37.410;-122.096;2022-10-17T03:36:11;21.50;73.30
33508;DHT22;25568;37.410;-122.096;2022-10-17T03:38:41;21.50;73.30
33508;DHT22;25568;37.410;-122.096;2022-10-17T03:41:11;21.50;73.10
33508;DHT22;25568;37.410;-122.096;2022-10-17T03:43:39;21.50;73.10
33508;DHT22;25568;37.410;-122.096;2022-10-17T03:46:08;21.50;73.00
33508;DHT22;25568;37.410;-122.096;2022-10-17T03:48:37;21.50;73.00
33508;DHT22;25568;37.410;-122.096;2022-10-17T03:51:08;21.50;72.80
33508;DHT22;25568;37.410;-122.096;2022-10-17T03:53:37;21.50;72.80
33508;DHT22;25568;37.410;-122.096;2022-10-17T03:56:10;21.50;73.50
33508;DHT22;25568;37.410;-122.096;2022-10-17T03:58:40;21.50;73.50
33508;DHT22;25568;37.410;-122.096;2022-10-17T04:01:10;21.50;73.50
33508;DHT22;25568;37.410;-122.096;2022-10-17T04:03:39;21.50;73.50
33508;DHT22;25568;37.410;-122.096;2022-10-17T04:06:11;21.50;73.30
33508;DHT22;25568;37.410;-122.096;2022-10-17T04:08:40;21.40;73.20
33508;DHT22;25568;37.410;-122.096;2022-10-17T04:11:12;21.40;73.10
33508;DHT22;25568;37.410;-122.096;2022-10-17T04:13:41;21.50;73.10
33508;DHT22;25568;37.410;-122.096;2022-10-17T04:16:12;21.40;73.10
33508;DHT22;25568;37.410;-122.096;2022-10-17T04:18:41;21.40;73.00
33508;DHT22;25568;37.410;-122.096;2022-10-17T04:21:11;21.40;73.00
33508;DHT22;25568;37.410;-122.096;2022-10-17T04:23:40;21.40;73.00
33508;DHT22;25568;37.410;-122.096;2022-10-17T04:26:09;21.40;73.00
33508;DHT22;25568;37.410;-122.096;2022-10-17T04:28:38;21.40;72.80
33508;DHT22;25568;37.410;-122.096;2022-10-17T04:31:09;21.40;72.80
33508;DHT22;25568;37.410;-122.096;2022-10-17T04:33:39;21.40;72.80
33508;DHT22;25568;37.410;-122.096;2022-10-17T04:38:55;21.30;72.80
33508;DHT22;25568;37.410;-122.096;2022-10-17T04:41:24;21.30;72.80
33508;DHT22;25568;37.410;-122.096;2022-10-17T04:43:53;21.30;72.70
33508;DHT22;25568;37.410;-122.096;2022-10-17T04:46:22;21.30;72.70
33508;DHT22;25568;37.410;-122.096;2022-10-17T04:48:52;21.30;72.70
33508;DHT22;25568;37.410;-122.096;2022-10-17T04:51:21;21.30;72.70
33508;DHT22;25568;37.410;-122.096;2022-10-17T04:53:49;21.30;72.70
33508;DHT22;25568;37.410;-122.096;2022-10-17T04:56:23;21.20;72.60
33508;DHT22;25568;37.410;-122.096;2022-10-17T04:58:52;21.20;72.50
33508;DHT22;25568;37.410;-122.096;2022-10-17T05:01:22;21.20;72.50
33508;DHT22;25568;37.410;-122.096;2022-10-17T05:03:51;21.20;72.50
33508;DHT22;25568;37.410;-122.096;2022-10-17T05:06:23;21.20;72.50
33508;DHT22;25568;37.410;-122.096;2022-10-17T05:08:53;21.20;72.50
33508;DHT22;25568;37.410;-122.096;2022-10-17T05:11:26;21.20;72.50
33508;DHT22;25568;37.410;-122.096;2022-10-17T05:13:56;21.20;72.50
33508;DHT22;25568;37.410;-122.096;2022-10-17T05:16:26;21.10;72.50
33508;DHT22;25568;37.410;-122.096;2022-10-17T05:18:57;21.10;72.50
33508;DHT22;25568;37.410;-122.096;2022-10-17T05:21:27;21.10;72.30
33508;DHT22;25568;37.410;-122.096;2022-10-17T05:23:56;21.10;73.10
33508;DHT22;25568;37.410;-122.096;2022-10-17T05:26:27;21.10;72.40
33508;DHT22;25568;37.410;-122.096;2022-10-17T05:28:55;21.10;72.40
33508;DHT22;25568;37.410;-122.096;2022-10-17T05:31:25;21.10;72.40
33508;DHT22;25568;37.410;-122.096;2022-10-17T05:33:54;21.10;72.40
33508;DHT22;25568;37.410;-122.096;2022-10-17T05:36:23;21.10;72.40
33508;DHT22;25568;37.410;-122.096;2022-10-17T05:38:53;21.00;72.30
33508;DHT22;25568;37.410;-122.096;2022-10-17T05:41:22;21.00;72.20
33508;DHT22;25568;37.410;-122.096;2022-10-17T05:43:52;21.00;72.10
33508;DHT22;25568;37.410;-122.096;2022-10-17T05:46:21;20.90;72.00
33508;DHT22;25568;37.410;-122.096;2022-10-17T05:48:51;20.90;72.00
33508;DHT22;25568;37.410;-122.096;2022-10-17T05:51:21;20.90;72.60
33508;DHT22;25568;37.410;-122.096;2022-10-17T05:53:50;20.90;72.70
33508;DHT22;25568;37.410;-122.096;2022-10-17T05:56:19;20.80;72.70
33508;DHT22;25568;37.410;-122.096;2022-10-17T05:58:47;20.80;73.00
33508;DHT22;25568;37.410;-122.096;2022-10-17T06:01:18;20.80;72.90
33508;DHT22;25568;37.410;-122.096;2022-10-17T06:03:47;20.80;73.10
33508;DHT22;25568;37.410;-122.096;2022-10-17T06:06:16;20.70;73.10
33508;DHT22;25568;37.410;-122.096;2022-10-17T06:08:45;20.70;73.00
33508;DHT22;25568;37.410;-122.096;2022-10-17T06:11:13;20.70;73.40
33508;DHT22;25568;37.410;-122.096;2022-10-17T06:13:42;20.70;73.50
33508;DHT22;25568;37.410;-122.096;2022-10-17T06:16:11;20.70;74.00
33508;DHT22;25568;37.410;-122.096;2022-10-17T06:18:41;20.70;74.10
33508;DHT22;25568;37.410;-122.096;2022-10-17T06:21:11;20.70;74.30
33508;DHT22;25568;37.410;-122.096;2022-10-17T06:23:41;20.70;74.30
33508;DHT22;25568;37.410;-122.096;2022-10-17T06:26:10;20.70;74.50
33508;DHT22;25568;37.410;-122.096;2022-10-17T06:28:39;20.70;74.60
33508;DHT22;25568;37.410;-122.096;2022-10-17T06:31:09;20.70;74.70
33508;DHT22;25568;37.410;-122.096;2022-10-17T06:33:40;20.70;74.60
33508;DHT22;25568;37.410;-122.096;2022-10-17T06:36:11;20.70;74.70
33508;DHT22;25568;37.410;-122.096;2022-10-17T06:38:41;20.60;74.70
33508;DHT22;25568;37.410;-122.096;2022-10-17T06:41:11;20.60;74.70
33508;DHT22;25568;37.410;-122.096;2022-10-17T06:43:41;20.60;74.80
33508;DHT22;25568;37.410;-122.096;2022-10-17T06:46:12;20.60;74.80
33508;DHT22;25568;37.410;-122.096;2022-10-17T06:48:42;20.50;74.90
33508;DHT22;25568;37.410;-122.096;2022-10-17T06:51:11;20.50;75.10
33508;DHT22;25568;37.410;-122.096;2022-10-17T06:53:40;20.50;75.10
33508;DHT22;25568;37.410;-122.096;2022-10-17T06:56:10;20.50;75.10
33508;DHT22;25568;37.410;-122.096;2022-10-17T06:58:39;20.50;75.10
33508;DHT22;25568;37.410;-122.096;2022-10-17T07:01:09;20.50;75.30
33508;DHT22;25568;37.410;-122.096;2022-10-17T07:03:39;20.50;75.30
33508;DHT22;25568;37.410;-122.096;2022-10-17T07:06:10;20.40;75.10
33508;DHT22;25568;37.410;-122.096;2022-10-17T07:08:42;20.50;75.70
33508;DHT22;25568;37.410;-122.096;2022-10-17T07:11:12;20.50;75.60
33508;DHT22;25568;37.410;-122.096;2022-10-17T07:13:41;20.40;75.80
33508;DHT22;25568;37.410;-122.096;2022-10-17T07:16:11;20.40;75.80
33508;DHT22;25568;37.410;-122.096;2022-10-17T07:18:40;20.40;75.80
33508;DHT22;25568;37.410;-122.096;2022-10-17T07:21:10;20.40;75.90
33508;DHT22;25568;37.410;-122.096;2022-10-17T07:23:39;20.40;76.10
33508;DHT22;25568;37.410;-122.096;2022-10-17T07:26:09;20.40;76.30
33508;DHT22;25568;37.410;-122.096;2022-10-17T07:28:40;20.40;76.40
33508;DHT22;25568;37.410;-122.096;2022-10-17T07:31:11;20.40;76.60
33508;DHT22;25568;37.410;-122.096;2022-10-17T07:33:40;20.40;76.80
33508;DHT22;25568;37.410;-122.096;2022-10-17T07:36:11;20.30;76.90
33508;DHT22;25568;37.410;-122.096;2022-10-17T07:38:40;20.30;76.90
33508;DHT22;25568;37.410;-122.096;2022-10-17T07:41:10;20.30;77.00
33508;DHT22;25568;37.410;-122.096;2022-10-17T07:43:39;20.30;77.20
33508;DHT22;25568;37.410;-122.096;2022-10-17T07:46:08;20.30;77.20
33508;DHT22;25568;37.410;-122.096;2022-10-17T07:48:38;20.30;77.40
33508;DHT22;25568;37.410;-122.096;2022-10-17T07:51:10;20.30;77.50
33508;DHT22;25568;37.410;-122.096;2022-10-17T07:53:39;20.30;77.60
33508;DHT22;25568;37.410;-122.096;2022-10-17T07:56:09;20.30;77.80
33508;DHT22;25568;37.410;-122.096;2022-10-17T07:58:38;20.20;77.90
33508;DHT22;25568;37.410;-122.096;2022-10-17T08:01:08;20.30;77.90
33508;DHT22;25568;37.410;-122.096;2022-10-17T08:03:40;20.20;78.20
33508;DHT22;25568;37.410;-122.096;2022-10-17T08:06:10;20.20;78.30
33508;DHT22;25568;37.410;-122.096;2022-10-17T08:08:39;20.20;78.30
33508;DHT22;25568;37.410;-122.096;2022-10-17T08:11:10;20.20;78.20
33508;DHT22;25568;37.410;-122.096;2022-10-17T08:13:40;20.20;78.30
33508;DHT22;25568;37.410;-122.096;2022-10-17T08:16:11;20.20;78.30
33508;DHT22;25568;37.410;-122.096;2022-10-17T08:18:41;20.20;78.20
33508;DHT22;25568;37.410;-122.096;2022-10-17T08:21:11;20.20;78.20
33508;DHT22;25568;37.410;-122.096;2022-10-17T08:23:40;20.20;78.20
33508;DHT22;25568;37.410;-122.096;2022-10-17T08:26:10;20.20;78.40
33508;DHT22;25568;37.410;-122.096;2022-10-17T08:28:39;20.20;78.40
33508;DHT22;25568;37.410;-122.096;2022-10-17T08:31:09;20.20;78.40
33508;DHT22;25568;37.410;-122.096;2022-10-17T08:33:39;20.20;78.40
33508;DHT22;25568;37.410;-122.096;2022-10-17T08:36:11;20.20;78.40
33508;DHT22;25568;37.410;-122.096;2022-10-17T08:38:40;20.10;78.30
33508;DHT22;25568;37.410;-122.096;2022-10-17T08:41:16;20.10;78.20
33508;DHT22;25568;37.410;-122.096;2022-10-17T08:44:02;20.10;78.20
33508;DHT22;25568;37.410;-122.096;2022-10-17T08:46:36;20.10;78.20
33508;DHT22;25568;37.410;-122.096;2022-10-17T08:49:12;20.10;78.20
33508;DHT22;25568;37.410;-122.096;2022-10-17T08:51:48;20.10;78.20
33508;DHT22;25568;37.410;-122.096;2022-10-17T08:54:21;20.10;78.30
33508;DHT22;25568;37.410;-122.096;2022-10-17T08:56:54;20.00;78.20
33508;DHT22;25568;37.410;-122.096;2022-10-17T08:59:26;20.00;78.20
33508;DHT22;25568;37.410;-122.096;2022-10-17T09:02:00;20.00;78.10
33508;DHT22;25568;37.410;-122.096;2022-10-17T09:04:49;20.00;78.00
33508;DHT22;25568;37.410;-122.096;2022-10-17T09:07:30;20.00;78.10
33508;DHT22;25568;37.410;-122.096;2022-10-17T09:10:05;20.00;78.30
33508;DHT22;25568;37.410;-122.096;2022-10-17T09:12:44;20.00;78.10
33508;DHT22;25568;37.410;-122.096;2022-10-17T09:15:33;20.00;78.10
33508;DHT22;25568;37.410;-122.096;2022-10-17T09:18:12;19.90;78.00
33508;DHT22;25568;37.410;-122.096;2022-10-17T09:20:46;19.90;77.90
33508;DHT22;25568;37.410;-122.096;2022-10-17T09:23:20;19.90;77.90
33508;DHT22;25568;37.410;-122.096;2022-10-17T09:25:53;19.90;77.80
33508;DHT22;25568;37.410;-122.096;2022-10-17T09:28:27;19.90;77.80
33508;DHT22;25568;37.410;-122.096;2022-10-17T09:31:00;19.90;77.80
33508;DHT22;25568;37.410;-122.096;2022-10-17T09:33:36;19.90;77.70
33508;DHT22;25568;37.410;-122.096;2022-10-17T09:36:09;19.80;77.60
33508;DHT22;25568;37.410;-122.096;2022-10-17T09:38:42;19.80;77.60
33508;DHT22;25568;37.410;-122.096;2022-10-17T09:41:18;19.80;77.60
33508;DHT22;25568;37.410;-122.096;2022-10-17T09:43:47;19.80;77.50
33508;DHT22;25568;37.410;-122.096;2022-10-17T09:46:22;19.80;77.70
33508;DHT22;25568;37.410;-122.096;2022-10-17T09:48:56;19.80;77.70
33508;DHT22;25568;37.410;-122.096;2022-10-17T09:51:27;19.80;77.70
33508;DHT22;25568;37.410;-122.096;2022-10-17T09:54:02;19.80;77.90
33508;DHT22;25568;37.410;-122.096;2022-10-17T09:56:31;19.70;77.90
33508;DHT22;25568;37.410;-122.096;2022-10-17T09:59:31;19.70;78.00
33508;DHT22;25568;37.410;-122.096;2022-10-17T10:02:08;19.80;78.10
33508;DHT22;25568;37.410;-122.096;2022-10-17T10:04:55;19.70;77.90
33508;DHT22;25568;37.410;-122.096;2022-10-17T10:07:25;19.70;77.90
33508;DHT22;25568;37.410;-122.096;2022-10-17T10:09:58;19.70;77.90
33508;DHT22;25568;37.410;-122.096;2022-10-17T10:12:31;19.70;77.90
33508;DHT22;25568;37.410;-122.096;2022-10-17T10:15:00;19.70;77.90
33508;DHT22;25568;37.410;-122.096;2022-10-17T10:17:36;19.70;77.90
33508;DHT22;25568;37.410;-122.096;2022-10-17T10:20:26;19.70;77.90
33508;DHT22;25568;37.410;-122.096;2022-10-17T10:23:12;19.60;77.90
33508;DHT22;25568;37.410;-122.096;2022-10-17T10:25:58;19.60;77.80
33508;DHT22;25568;37.410;-122.096;2022-10-17T10:28:29;19.60;77.80
33508;DHT22;25568;37.410;-122.096;2022-10-17T10:31:00;19.60;77.80
33508;DHT22;25568;37.410;-122.096;2022-10-17T10:33:32;19.60;77.80
33508;DHT22;25568;37.410;-122.096;2022-10-17T10:36:04;19.60;77.80
33508;DHT22;25568;37.410;-122.096;2022-10-17T10:38:33;19.50;77.70
33508;DHT22;25568;37.410;-122.096;2022-10-17T10:41:06;19.50;77.90
33508;DHT22;25568;37.410;-122.096;2022-10-17T10:43:36;19.50;77.80
33508;DHT22;25568;37.410;-122.096;2022-10-17T10:46:16;19.50;78.10
33508;DHT22;25568;37.410;-122.096;2022-10-17T10:48:53;19.50;78.10
33508;DHT22;25568;37.410;-122.096;2022-10-17T10:51:28;19.50;78.10
33508;DHT22;25568;37.410;-122.096;2022-10-17T10:54:02;19.50;78.00
33508;DHT22;25568;37.410;-122.096;2022-10-17T10:56:37;19.50;78.10
33508;DHT22;25568;37.410;-122.096;2022-10-17T10:59:14;19.50;78.00
33508;DHT22;25568;37.410;-122.096;2022-10-17T11:01:49;19.50;78.00
33508;DHT22;25568;37.410;-122.096;2022-10-17T11:04:29;19.50;78.00
33508;DHT22;25568;37.410;-122.096;2022-10-17T11:07:03;19.40;77.90
33508;DHT22;25568;37.410;-122.096;2022-10-17T11:09:41;19.40;77.90
33508;DHT22;25568;37.410;-122.096;2022-10-17T11:12:18;19.40;78.00
33508;DHT22;25568;37.410;-122.096;2022-10-17T11:14:52;19.40;78.60
33508;DHT22;25568;37.410;-122.096;2022-10-17T11:17:30;19.40;77.90
33508;DHT22;25568;37.410;-122.096;2022-10-17T11:20:10;19.30;77.80
33508;DHT22;25568;37.410;-122.096;2022-10-17T11:22:44;19.40;77.90
33508;DHT22;25568;37.410;-122.096;2022-10-17T11:25:23;19.30;77.70
33508;DHT22;25568;37.410;-122.096;2022-10-17T11:27:58;19.30;77.80
33508;DHT22;25568;37.410;-122.096;2022-10-17T11:30:39;19.30;77.70
33508;DHT22;25568;37.410;-122.096;2022-10-17T11:33:14;19.30;77.80
33508;DHT22;25568;37.410;-122.096;2022-10-17T11:35:47;19.30;77.80
33508;DHT22;25568;37.410;-122.096;2022-10-17T11:38:21;19.30;77.80
33508;DHT22;25568;37.410;-122.096;2022-10-17T11:40:54;19.30;77.80
33508;DHT22;25568;37.410;-122.096;2022-10-17T11:43:28;19.20;77.70
33508;DHT22;25568;37.410;-122.096;2022-10-17T11:46:03;19.20;77.80
33508;DHT22;25568;37.410;-122.096;2022-10-17T11:48:38;19.20;77.80
33508;DHT22;25568;37.410;-122.096;2022-10-17T11:51:10;19.20;77.80
33508;DHT22;25568;37.410;-122.096;2022-10-17T11:53:48;19.20;77.90
33508;DHT22;25568;37.410;-122.096;2022-10-17T11:56:25;19.20;77.90
33508;DHT22;25568;37.410;-122.096;2022-10-17T11:59:15;19.20;77.90
33508;DHT22;25568;37.410;-122.096;2022-10-17T12:01:55;19.10;77.90
33508;DHT22;25568;37.410;-122.096;2022-10-17T12:04:44;19.10;78.00
33508;DHT22;25568;37.410;-122.096;2022-10-17T12:07:19;19.10;78.00
33508;DHT22;25568;37.410;-122.096;2022-10-17T12:09:54;19.10;78.10
33508;DHT22;25568;37.410;-122.096;2022-10-17T12:12:25;19.10;78.10
33508;DHT22;25568;37.410;-122.096;2022-10-17T12:15:29;19.10;78.10
33508;DHT22;25568;37.410;-122.096;2022-10-17T12:17:59;19.10;78.00
33508;DHT22;25568;37.410;-122.096;2022-10-17T12:20:33;19.10;78.00
33508;DHT22;25568;37.410;-122.096;2022-10-17T12:23:19;19.00;77.90
33508;DHT22;25568;37.410;-122.096;2022-10-17T12:25:51;19.00;78.10
33508;DHT22;25568;37.410;-122.096;2022-10-17T12:28:25;19.00;78.20
33508;DHT22;25568;37.410;-122.096;2022-10-17T12:30:58;19.00;78.20
33508;DHT22;25568;37.410;-122.096;2022-10-17T12:33:32;19.00;78.10
33508;DHT22;25568;37.410;-122.096;2022-10-17T12:42:44;19.00;78.10
33508;DHT22;25568;37.410;-122.096;2022-10-17T12:49:00;18.90;78.00
33508;DHT22;25568;37.410;-122.096;2022-10-17T12:51:29;18.90;77.90
33508;DHT22;25568;37.410;-122.096;2022-10-17T12:54:18;18.90;77.90
33508;DHT22;25568;37.410;-122.096;2022-10-17T12:56:48;18.90;77.90
33508;DHT22;25568;37.410;-122.096;2022-10-17T12:59:21;18.90;77.90
33508;DHT22;25568;37.410;-122.096;2022-10-17T13:01:53;18.80;77.90
33508;DHT22;25568;37.410;-122.096;2022-10-17T13:04:25;18.80;77.80
33508;DHT22;25568;37.410;-122.096;2022-10-17T13:06:56;18.80;77.90
33508;DHT22;25568;37.410;-122.096;2022-10-17T13:09:28;18.80;77.90
33508;DHT22;25568;37.410;-122.096;2022-10-17T13:11:59;18.80;77.80
33508;DHT22;25568;37.410;-122.096;2022-10-17T13:14:30;18.80;77.90
33508;DHT22;25568;37.410;-122.096;2022-10-17T13:17:01;18.80;77.80
33508;DHT22;25568;37.410;-122.096;2022-10-17T13:19:40;18.80;77.80
33508;DHT22;25568;37.410;-122.096;2022-10-17T13:22:14;18.80;77.90
33508;DHT22;25568;37.410;-122.096;2022-10-17T13:24:44;18.80;77.90
33508;DHT22;25568;37.410;-122.096;2022-10-17T13:27:26;18.80;77.90
33508;DHT22;25568;37.410;-122.096;2022-10-17T13:29:56;18.80;77.90
33508;DHT22;25568;37.410;-122.096;2022-10-17T13:32:27;18.70;77.80
33508;DHT22;25568;37.410;-122.096;2022-10-17T13:35:09;18.70;77.90
33508;DHT22;25568;37.410;-122.096;2022-10-17T13:37:40;18.70;77.90
33508;DHT22;25568;37.410;-122.096;2022-10-17T13:40:16;18.70;77.90
33508;DHT22;25568;37.410;-122.096;2022-10-17T13:42:45;18.70;77.80
33508;DHT22;25568;37.410;-122.096;2022-10-17T13:45:27;18.70;77.90
33508;DHT22;25568;37.410;-122.096;2022-10-17T13:47:57;18.70;78.10
33508;DHT22;25568;37.410;-122.096;2022-10-17T13:50:32;18.70;78.10
33508;DHT22;25568;37.410;-122.096;2022-10-17T13:53:07;18.70;78.10
33508;DHT22;25568;37.410;-122.096;2022-10-17T13:55:37;18.70;78.10
33508;DHT22;25568;37.410;-122.096;2022-10-17T13:58:13;18.60;78.10
33508;DHT22;25568;37.410;-122.096;2022-10-17T14:00:43;18.60;78.20
33508;DHT22;25568;37.410;-122.096;2022-10-17T14:03:12;18.60;78.20
33508;DHT22;25568;37.410;-122.096;2022-10-17T14:06:02;18.60;78.10
33508;DHT22;25568;37.410;-122.096;2022-10-17T14:08:33;18.60;78.30
33508;DHT22;25568;37.410;-122.096;2022-10-17T14:11:02;18.60;78.10
33508;DHT22;25568;37.410;-122.096;2022-10-17T14:13:36;18.60;78.20
33508;DHT22;25568;37.410;-122.096;2022-10-17T14:16:05;18.60;78.10
33508;DHT22;25568;37.410;-122.096;2022-10-17T14:18:37;18.60;77.90
33508;DHT22;25568;37.410;-122.096;2022-10-17T14:21:07;18.60;77.90
33508;DHT22;25568;37.410;-122.096;2022-10-17T14:23:38;18.60;76.00
33508;DHT22;25568;37.410;-122.096;2022-10-17T14:26:10;18.60;75.40
33508;DHT22;25568;37.410;-122.096;2022-10-17T14:28:40;18.50;75.10
33508;DHT22;25568;37.410;-122.096;2022-10-17T14:31:21;18.50;74.80
33508;DHT22;25568;37.410;-122.096;2022-10-17T14:33:53;18.40;74.50
33508;DHT22;25568;37.410;-122.096;2022-10-17T14:36:35;18.40;74.10
33508;DHT22;25568;37.410;-122.096;2022-10-17T14:39:06;18.30;74.00
33508;DHT22;25568;37.410;-122.096;2022-10-17T14:41:38;18.30;73.90
33508;DHT22;25568;37.410;-122.096;2022-10-17T14:44:18;18.30;73.70
33508;DHT22;25568;37.410;-122.096;2022-10-17T14:46:51;18.20;73.30
33508;DHT22;25568;37.410;-122.096;2022-10-17T14:49:25;18.20;73.30
33508;DHT22;25568;37.410;-122.096;2022-10-17T14:52:26;18.10;73.30
33508;DHT22;25568;37.410;-122.096;2022-10-17T14:54:56;18.10;73.10
33508;DHT22;25568;37.410;-122.096;2022-10-17T14:57:33;18.10;73.10
33508;DHT22;25568;37.410;-122.096;2022-10-17T15:00:02;18.10;73.10
33508;DHT22;25568;37.410;-122.096;2022-10-17T15:02:31;18.00;73.10
33508;DHT22;25568;37.410;-122.096;2022-10-17T15:05:00;18.10;73.40
33508;DHT22;25568;37.410;-122.096;2022-10-17T15:07:30;18.00;74.70
33508;DHT22;25568;37.410;-122.096;2022-10-17T15:09:59;18.10;79.50
33508;DHT22;25568;37.410;-122.096;2022-10-17T15:12:28;18.20;82.10
33508;DHT22;25568;37.410;-122.096;2022-10-17T15:14:57;18.30;83.30
33508;DHT22;25568;37.410;-122.096;2022-10-17T15:17:27;18.30;82.20
33508;DHT22;25568;37.410;-122.096;2022-10-17T15:19:57;18.30;81.50
33508;DHT22;25568;37.410;-122.096;2022-10-17T15:22:26;18.40;80.40
33508;DHT22;25568;37.410;-122.096;2022-10-17T15:24:56;18.40;79.40
33508;DHT22;25568;37.410;-122.096;2022-10-17T15:27:25;18.40;78.90
33508;DHT22;25568;37.410;-122.096;2022-10-17T15:29:55;18.40;79.20
33508;DHT22;25568;37.410;-122.096;2022-10-17T15:32:24;18.40;79.60
33508;DHT22;25568;37.410;-122.096;2022-10-17T15:34:53;18.50;80.00